Time;durP1;ratioP1;P1;durP2;ratioP2;P2;SDS_P1;SDS_P2;PMS_P1;PMS_P2;Temp;Humidity;BMP_temperature;BMP_pressure;BME280_temperature;BME280_humidity;BME280_pressure;Samples;Min_cycle;Max_cycle;Signal;HPM_P1;HPM_P2
2023/10/24 00:00:46;;;;;;;23.27;5.20;;;15.90;91.70;;;16.16;57.35;95160.44;5073839;28;20451;-60
2023/10/24 00:03:15;;;;;;;20.93;4.73;;;15.90;91.60;;;16.11;57.21;95161.78;5077327;28;20454;-61
2023/10/24 00:05:42;;;;;;;15.20;4.40;;;15.80;91.80;;;16.06;57.39;95157.97;5071994;28;20494;-60
2023/10/24 00:08:10;;;;;;;18.20;4.70;;;15.80;91.80;;;16.03;57.59;95164.41;5075178;28;20846;-61
2023/10/24 00:10:37;;;;;;;16.07;4.50;;;15.70;92.00;;;16.00;57.85;95158.63;5073188;28;20458;-60
2023/10/24 00:13:04;;;;;;;17.33;5.17;;;15.70;92.20;;;15.96;57.75;95152.84;5077344;28;20454;-61
2023/10/24 00:15:31;;;;;;;19.43;4.60;;;15.70;92.30;;;15.95;57.86;95151.16;5073666;28;20451;-60
2023/10/24 00:17:59;;;;;;;14.37;4.27;;;15.70;92.70;;;15.93;58.22;95150.50;5076688;28;20877;-60
2023/10/24 00:20:27;;;;;;;22.70;5.23;;;15.60;92.70;;;15.89;57.83;95151.84;5069678;28;20500;-60
2023/10/24 00:22:55;;;;;;;23.70;4.97;;;15.60;92.60;;;15.86;58.23;95149.50;5077413;28;20975;-59
2023/10/24 00:25:22;;;;;;;20.07;5.23;;;15.60;92.80;;;15.82;58.15;95148.16;5071680;28;20451;-61
2023/10/24 00:27:49;;;;;;;25.33;5.80;;;15.60;93.00;;;15.81;58.19;95157.16;5076721;28;20914;-59
2023/10/24 00:30:16;;;;;;;23.23;4.73;;;15.50;93.00;;;15.76;58.14;95152.31;5074739;28;20614;-61
2023/10/24 00:32:49;;;;;;;16.33;5.30;;;15.50;92.90;;;15.72;58.31;95146.50;5074094;28;20481;-59
2023/10/24 00:35:17;;;;;;;16.23;5.00;;;15.50;93.30;;;15.69;58.32;95152.13;5076920;28;20490;-60
2023/10/24 00:37:46;;;;;;;14.50;4.37;;;15.40;93.20;;;15.67;58.40;95151.47;5073528;28;20490;-61
2023/10/24 00:40:13;;;;;;;21.50;4.87;;;15.40;93.40;;;15.64;58.27;95146.47;5070384;28;20466;-60
2023/10/24 00:42:40;;;;;;;19.30;4.70;;;15.40;93.40;;;15.62;58.69;95148.47;5080819;28;20466;-61
2023/10/24 00:45:09;;;;;;;24.83;3.77;;;15.40;93.70;;;15.59;58.52;95146.97;5075683;28;20520;-59
2023/10/24 00:47:37;;;;;;;28.23;4.20;;;15.30;93.60;;;15.56;58.96;95149.94;5079301;28;20844;-60
2023/10/24 00:50:07;;;;;;;19.90;3.83;;;15.30;93.80;;;15.54;58.64;95145.81;5072237;28;20447;-62
2023/10/24 00:52:34;;;;;;;15.73;3.70;;;15.30;93.70;;;15.52;58.61;95153.09;5076223;28;20466;-60
2023/10/24 00:55:03;;;;;;;11.90;4.63;;;15.30;93.80;;;15.49;58.57;95151.63;5071844;28;20479;-61
2023/10/24 00:57:31;;;;;;;22.13;4.60;;;15.30;93.90;;;15.48;58.66;95141.19;5075875;28;20484;-60
2023/10/24 00:59:58;;;;;;;20.50;4.53;;;15.20;93.80;;;15.45;58.84;95146.81;5072886;28;20477;-60
2023/10/24 01:02:26;;;;;;;18.07;4.40;;;15.20;94.00;;;15.42;58.76;95148.75;5075806;28;21085;-60
2023/10/24 01:04:56;;;;;;;26.33;4.47;;;15.20;94.10;;;15.39;58.85;95151.75;5072927;28;20461;-61
2023/10/24 01:07:23;;;;;;;20.77;3.80;;;15.10;94.10;;;15.35;58.94;95136.31;5079979;28;20508;-60
2023/10/24 01:09:50;;;;;;;19.73;4.20;;;15.10;94.20;;;15.31;59.17;95151.72;5077272;28;20806;-61
2023/10/24 01:12:19;;;;;;;16.10;5.53;;;15.00;94.20;;;15.27;59.33;95153.03;5078776;28;20508;-60
2023/10/24 01:14:46;;;;;;;9.20;3.50;;;15.00;94.30;;;15.21;59.12;95154.53;5076818;28;20458;-61
2023/10/24 01:17:14;;;;;;;28.23;4.60;;;15.00;94.20;;;15.17;59.45;95153.19;5073619;28;20536;-59
2023/10/24 01:19:41;;;;;;;16.30;4.53;;;14.90;94.70;;;15.13;59.46;95153.66;5072946;28;20451;-60
2023/10/24 01:22:10;;;;;;;19.73;3.97;;;14.90;94.70;;;15.12;59.60;95152.00;5077582;28;20539;-59
2023/10/24 01:24:37;;;;;;;18.63;4.70;;;14.80;94.70;;;15.08;59.71;95150.69;5074623;28;20970;-59
2023/10/24 01:27:05;;;;;;;14.17;4.77;;;14.90;95.00;;;15.06;59.78;95149.00;5077681;28;20599;-59
2023/10/24 01:29:32;;;;;;;8.87;5.00;;;14.80;95.00;;;15.05;59.76;95138.56;5077768;28;20442;-60
2023/10/24 01:31:59;;;;;;;19.47;5.07;;;14.80;95.00;;;15.03;59.85;95143.22;5084341;28;20470;-59
2023/10/24 01:34:27;;;;;;;18.13;5.00;;;14.80;95.30;;;15.01;59.94;95143.38;5080301;28;20451;-60
2023/10/24 01:36:54;;;;;;;20.03;4.67;;;14.70;95.30;;;15.00;59.91;95139.06;5081322;28;20482;-60
2023/10/24 01:39:23;;;;;;;14.03;4.70;;;14.70;95.30;;;14.99;60.00;95134.75;5076269;28;20490;-60
2023/10/24 01:41:51;;;;;;;21.03;5.00;;;14.70;95.40;;;14.99;59.97;95141.88;5081508;28;20462;-59
2023/10/24 01:44:18;;;;;;;16.60;5.13;;;14.70;95.50;;;14.99;60.18;95140.03;5077079;28;20450;-59
2023/10/24 01:46:46;;;;;;;23.20;4.70;;;14.70;95.60;;;14.98;60.17;95135.75;5082452;28;20498;-59
2023/10/24 01:49:13;;;;;;;13.63;4.30;;;14.70;95.70;;;14.96;60.43;95140.34;5078098;28;21053;-59
2023/10/24 01:51:39;;;;;;;20.40;5.50;;;14.70;95.70;;;14.95;60.52;95138.72;5079901;28;20974;-60
2023/10/24 01:54:07;;;;;;;24.90;5.57;;;14.70;95.80;;;14.93;60.44;95139.84;5079756;28;20820;-60
2023/10/24 01:56:36;;;;;;;26.10;6.43;;;14.70;96.00;;;14.91;60.49;95137.38;5080408;28;20465;-60
2023/10/24 01:59:04;;;;;;;33.30;6.23;;;14.70;96.00;;;14.87;60.74;95142.16;5078794;28;20454;-60
2023/10/24 02:01:31;;;;;;;15.23;5.53;;;14.60;95.90;;;14.85;60.53;95138.81;5080321;28;20494;-60
2023/10/24 02:03:59;;;;;;;19.73;6.13;;;14.60;96.00;;;14.85;60.62;95140.66;5079676;28;20508;-60
2023/10/24 02:06:27;;;;;;;17.97;5.43;;;14.60;96.20;;;14.84;60.93;95136.34;5079211;28;21049;-62
2023/10/24 02:08:54;;;;;;;17.50;5.77;;;14.60;96.30;;;14.83;60.92;95132.88;5082002;28;20500;-59
2023/10/24 02:11:21;;;;;;;19.37;5.80;;;14.60;96.30;;;14.82;61.02;95130.38;5082090;28;20458;-61
2023/10/24 02:13:50;;;;;;;22.07;5.87;;;14.60;96.40;;;14.82;60.78;95135.69;5080756;28;20461;-59
2023/10/24 02:16:17;;;;;;;18.03;6.50;;;14.50;96.20;;;14.78;60.70;95135.19;5082585;28;20466;-61
2023/10/24 02:18:45;;;;;;;24.43;7.70;;;14.50;96.30;;;14.75;61.22;95132.84;5081036;28;20451;-58
2023/10/24 02:21:12;;;;;;;16.20;5.70;;;14.50;96.60;;;14.73;60.94;95132.16;5080947;28;20475;-61
2023/10/24 02:23:39;;;;;;;24.60;6.20;;;14.50;96.50;;;14.72;60.80;95133.16;5082552;28;20962;-61
2023/10/24 02:26:06;;;;;;;23.00;5.50;;;14.50;96.50;;;14.70;61.08;95140.41;5079371;28;20860;-60
2023/10/24 02:28:34;;;;;;;21.70;6.03;;;14.50;96.60;;;14.68;60.92;95132.63;5082253;28;20449;-59
2023/10/24 02:31:04;;;;;;;23.97;6.77;;;14.40;96.60;;;14.68;61.10;95129.16;5079540;28;20486;-60
2023/10/24 02:33:31;;;;;;;24.30;6.70;;;14.40;96.60;;;14.66;61.19;95133.78;5083209;28;20469;-61
2023/10/24 02:36:08;;;;;;;16.30;6.47;;;14.40;96.70;;;14.63;61.73;95137.56;5079690;28;20451;-59
2023/10/24 02:38:35;;;;;;;19.93;7.23;;;14.40;96.90;;;14.59;61.59;95138.84;5082558;28;20472;-60
2023/10/24 02:41:02;;;;;;;19.03;7.30;;;14.40;96.90;;;14.58;61.58;95145.16;5078328;28;20482;-60
2023/10/24 02:43:30;;;;;;;16.83;6.10;;;14.30;97.00;;;14.55;61.39;95142.81;5075910;28;20443;-60
2023/10/24 02:45:58;;;;;;;16.40;7.20;;;14.30;97.00;;;14.53;61.65;95155.34;5079510;28;20778;-61
2023/10/24 02:48:27;;;;;;;23.30;8.70;;;14.30;97.20;;;14.52;61.70;95159.00;5079463;28;20474;-61
2023/10/24 02:50:54;;;;;;;17.77;7.83;;;14.30;97.20;;;14.50;61.82;95151.22;5079431;28;20557;-58
2023/10/24 02:53:21;;;;;;;20.93;6.53;;;14.20;97.30;;;14.51;62.14;95154.69;5077878;28;20447;-60
2023/10/24 02:55:49;;;;;;;25.17;7.30;;;14.20;97.50;;;14.50;62.62;95164.47;5079458;28;20974;-62
2023/10/24 02:58:16;;;;;;;23.00;7.43;;;14.20;97.90;;;14.50;62.44;95159.16;5080597;28;20931;-62
2023/10/24 03:00:44;;;;;;;26.27;7.00;;;14.20;97.80;;;14.50;62.39;95156.50;5085748;28;20506;-63
2023/10/24 03:03:11;;;;;;;22.87;5.77;;;14.20;97.70;;;14.52;62.39;95161.66;5082894;28;20538;-61
2023/10/24 03:05:40;;;;;;;17.30;4.77;;;14.20;97.80;;;14.49;62.27;95164.63;5081372;28;20457;-60
2023/10/24 03:08:07;;;;;;;16.90;6.20;;;14.20;97.90;;;14.48;62.18;95170.88;5079003;28;21110;-58
2023/10/24 03:10:40;;;;;;;16.70;5.37;;;14.20;97.70;;;14.45;62.16;95171.19;5079514;28;20560;-59
2023/10/24 03:13:07;;;;;;;12.30;4.83;;;14.20;97.80;;;14.43;62.48;95176.66;5076256;28;20602;-60
2023/10/24 03:15:35;;;;;;;12.03;5.57;;;14.20;97.80;;;14.40;62.68;95168.19;5075607;28;20451;-59
2023/10/24 03:18:03;;;;;;;22.63;5.53;;;14.20;98.10;;;14.38;62.88;95170.19;5077525;28;20540;-60
2023/10/24 03:20:30;;;;;;;16.67;5.23;;;14.10;98.10;;;14.37;62.99;95173.81;5079354;28;20504;-59
2023/10/24 03:22:58;;;;;;;19.67;5.80;;;14.10;98.30;;;14.34;62.95;95175.78;5080799;28;21029;-60
2023/10/24 03:25:27;;;;;;;23.97;6.13;;;14.10;98.50;;;14.32;62.84;95175.09;5074849;28;20879;-61
2023/10/24 03:27:54;;;;;;;10.07;4.50;;;14.10;98.50;;;14.32;63.46;95183.03;5077548;28;20499;-60
2023/10/24 03:30:21;;;;;;;15.00;4.97;;;14.10;98.70;;;14.31;63.25;95186.69;5077187;28;20455;-60
2023/10/24 03:32:49;;;;;;;22.07;5.60;;;14.10;98.70;;;14.29;63.75;95180.69;5079224;28;20481;-61
2023/10/24 03:35:16;;;;;;;21.77;5.00;;;14.10;98.90;;;14.27;63.65;95180.03;5073923;28;21000;-60
2023/10/24 03:37:43;;;;;;;22.03;5.23;;;14.10;99.10;;;14.27;63.96;95189.78;5072432;28;20998;-60
2023/10/24 03:40:12;;;;;;;12.13;4.00;;;14.00;99.10;;;14.22;64.10;95179.66;5074153;28;20474;-60
2023/10/24 03:42:39;;;;;;;29.43;5.43;;;14.00;99.20;;;14.16;64.01;95185.56;5075470;28;21346;-61
2023/10/24 03:45:08;;;;;;;52.13;16.30;;;14.00;99.30;;;14.13;64.53;95191.16;5078702;28;20455;-60
2023/10/24 03:47:36;;;;;;;22.00;8.40;;;13.90;99.70;;;14.09;65.12;95195.09;5083243;28;20483;-61
2023/10/24 03:50:04;;;;;;;23.90;8.47;;;13.90;99.80;;;14.02;64.55;95189.59;5077736;28;20538;-61
2023/10/24 03:52:31;;;;;;;25.40;5.90;;;13.80;99.60;;;13.97;64.68;95199.78;5076494;28;20477;-61
2023/10/24 03:54:59;;;;;;;28.47;6.50;;;13.80;99.60;;;13.89;64.86;95187.31;5076323;28;20454;-59
2023/10/24 03:57:28;;;;;;;16.80;5.67;;;13.70;99.80;;;13.85;64.86;95190.44;5075315;28;20599;-61
2023/10/24 03:59:55;;;;;;;16.43;5.40;;;13.70;99.80;;;13.78;64.89;95198.16;5077128;28;20454;-59
2023/10/24 04:02:22;;;;;;;21.27;5.10;;;13.60;99.90;;;13.75;65.39;95201.09;5074372;28;20467;-62
2023/10/24 04:04:50;;;;;;;16.67;4.90;;;13.60;99.90;;;13.73;65.28;95200.41;5074156;28;20457;-62
2023/10/24 04:07:19;;;;;;;19.77;6.20;;;13.50;99.90;;;13.70;64.77;95200.72;5074716;28;20490;-61
2023/10/24 04:09:46;;;;;;;13.90;4.77;;;13.50;99.90;;;13.68;65.81;95195.59;5081118;28;20529;-61
2023/10/24 04:12:14;;;;;;;20.00;4.80;;;13.50;99.90;;;13.68;65.45;95200.03;5073042;28;20474;-60
2023/10/24 04:14:42;;;;;;;17.37;5.83;;;13.50;99.90;;;13.67;65.43;95190.44;5078157;28;20453;-60
2023/10/24 04:17:10;;;;;;;15.50;5.60;;;13.50;99.90;;;13.64;65.77;95188.94;5079543;28;20846;-62
2023/10/24 04:19:37;;;;;;;24.43;6.67;;;13.40;99.90;;;13.62;65.70;95204.13;5078638;28;20511;-60
2023/10/24 04:22:04;;;;;;;30.37;6.20;;;13.40;99.90;;;13.62;66.13;95204.13;5079183;28;20527;-60
2023/10/24 04:24:32;;;;;;;32.47;5.83;;;13.40;99.90;;;13.67;66.02;95203.66;5080706;28;20446;-61
2023/10/24 04:26:59;;;;;;;10.93;4.30;;;13.40;99.90;;;13.72;65.98;95209.31;5078502;28;20547;-60
2023/10/24 04:29:27;;;;;;;20.63;5.23;;;13.50;99.90;;;13.76;65.68;95213.34;5080079;28;20472;-61
2023/10/24 04:31:56;;;;;;;22.90;5.90;;;13.50;99.90;;;13.81;65.73;95208.41;5074164;28;20506;-59
2023/10/24 04:34:23;;;;;;;27.53;7.23;;;13.60;99.90;;;13.86;65.80;95206.13;5079299;28;20580;-62
2023/10/24 04:36:53;;;;;;;14.00;4.93;;;13.60;99.90;;;13.88;65.52;95214.78;5073012;28;20532;-60
2023/10/24 04:39:20;;;;;;;17.77;6.17;;;13.60;99.90;;;13.87;65.87;95223.69;5082544;28;20978;-61
2023/10/24 04:41:48;;;;;;;25.17;6.30;;;13.70;99.90;;;13.88;65.81;95220.06;5076775;28;21016;-61
2023/10/24 04:44:15;;;;;;;25.50;6.43;;;13.60;99.90;;;13.88;65.89;95227.13;5078974;28;20446;-59
2023/10/24 04:46:44;;;;;;;29.93;6.70;;;13.70;99.90;;;13.87;65.98;95226.31;5075153;28;20478;-60
2023/10/24 04:49:13;;;;;;;11.57;5.00;;;13.70;99.90;;;13.87;66.07;95236.06;5078011;28;20458;-60
2023/10/24 04:51:41;;;;;;;21.30;6.70;;;13.70;99.90;;;13.88;65.87;95228.00;5073895;28;20502;-60
2023/10/24 04:54:08;;;;;;;16.10;6.37;;;13.70;99.90;;;13.88;66.04;95235.94;5072182;28;20450;-61
2023/10/24 04:56:35;;;;;;;24.43;6.40;;;13.70;99.90;;;13.88;66.19;95225.34;5075249;28;20483;-61
2023/10/24 04:59:03;;;;;;;25.53;6.00;;;13.70;99.90;;;13.89;66.13;95236.75;5075018;28;20530;-61
2023/10/24 05:01:37;;;;;;;38.07;7.10;;;13.70;99.90;;;13.91;66.63;95238.25;5074295;28;20479;-60
2023/10/24 05:04:05;;;;;;;36.17;8.80;;;13.70;99.90;;;13.92;65.90;95245.19;5072565;28;20478;-60
2023/10/24 05:06:35;;;;;;;29.50;6.60;;;13.70;99.90;;;13.92;66.00;95239.91;5081269;28;20478;-61
2023/10/24 05:09:02;;;;;;;15.93;6.53;;;13.70;99.90;;;13.89;66.06;95245.50;5085129;28;20874;-61
2023/10/24 05:11:29;;;;;;;25.53;6.80;;;13.70;99.90;;;13.88;66.06;95243.00;5088384;28;20492;-59
2023/10/24 05:13:57;;;;;;;17.67;6.57;;;13.70;99.90;;;13.88;66.29;95245.66;5082411;28;20446;-60
2023/10/24 05:16:24;;;;;;;21.53;7.90;;;13.70;99.90;;;13.92;65.85;95247.84;5082632;28;20479;-59
2023/10/24 05:18:52;;;;;;;21.13;6.90;;;13.70;99.90;;;13.96;65.93;95257.16;5081634;28;20542;-61
2023/10/24 05:21:19;;;;;;;24.03;8.57;;;13.70;99.90;;;13.99;65.73;95262.13;5083871;28;20471;-60
2023/10/24 05:23:48;;;;;;;35.47;8.40;;;13.80;99.90;;;14.05;65.63;95259.84;5082566;28;20453;-60
2023/10/24 05:26:15;;;;;;;22.53;8.00;;;13.80;99.90;;;14.08;65.16;95262.19;5082470;28;20953;-60
2023/10/24 05:28:42;;;;;;;31.27;7.53;;;13.80;99.90;;;14.11;65.43;95256.59;5080636;28;20994;-59
2023/10/24 05:31:10;;;;;;;20.20;8.17;;;13.90;99.90;;;14.12;64.78;95260.91;5082389;28;21005;-59
2023/10/24 05:33:37;;;;;;;26.67;6.47;;;13.90;99.90;;;14.16;64.18;95270.22;5083171;28;20501;-60
2023/10/24 05:36:06;;;;;;;24.77;8.67;;;13.90;99.90;;;14.18;64.17;95264.78;5082008;28;20546;-61
2023/10/24 05:38:33;;;;;;;21.90;6.87;;;13.90;99.90;;;14.23;64.34;95273.09;5082946;28;20931;-62
2023/10/24 05:41:02;;;;;;;31.90;7.90;;;14.00;99.90;;;14.29;64.31;95281.22;5082682;28;20501;-60
2023/10/24 05:43:29;;;;;;;28.33;8.77;;;14.00;99.90;;;14.39;64.13;95277.66;5083033;28;20454;-60
2023/10/24 05:45:57;;;;;;;31.47;9.57;;;14.10;99.80;;;14.50;63.81;95285.34;5082061;28;20964;-60
2023/10/24 05:48:25;;;;;;;27.30;8.87;;;14.20;99.70;;;14.62;63.34;95283.34;5081922;28;20490;-60
2023/10/24 05:50:52;;;;;;;31.10;9.97;;;14.30;99.80;;;14.76;63.21;95280.13;5082384;28;20546;-59
2023/10/24 05:53:19;;;;;;;33.90;9.30;;;14.50;99.30;;;14.97;62.82;95282.41;5082225;28;20447;-60
2023/10/24 05:55:47;;;;;;;39.77;8.83;;;14.70;99.40;;;15.29;62.63;95274.78;5082872;28;20450;-60
2023/10/24 05:58:15;;;;;;;28.67;9.67;;;14.90;99.40;;;15.69;62.05;95271.47;5084854;28;20511;-60
2023/10/24 06:00:43;;;;;;;26.10;8.77;;;15.20;99.10;;;16.13;60.91;95279.19;5082204;28;20450;-60
2023/10/24 06:03:10;;;;;;;23.57;8.40;;;15.60;98.40;;;16.52;60.08;95277.72;5081669;28;20496;-61
2023/10/24 06:05:38;;;;;;;18.27;6.70;;;16.00;97.70;;;16.84;59.01;95282.19;5082462;28;21004;-61
2023/10/24 06:08:06;;;;;;;23.97;8.30;;;16.40;97.00;;;17.18;58.44;95286.47;5081446;28;20935;-59
2023/10/24 06:10:33;;;;;;;35.83;8.80;;;16.70;96.70;;;17.62;58.28;95287.81;5082930;28;20446;-62
2023/10/24 06:13:00;;;;;;;23.63;7.37;;;17.00;96.30;;;18.08;56.95;95284.44;5080720;28;20462;-60
2023/10/24 06:15:29;;;;;;;46.37;9.27;;;17.40;95.60;;;18.57;56.74;95286.72;5082809;28;20457;-60
2023/10/24 06:17:56;;;;;;;30.60;8.10;;;17.90;95.00;;;19.06;55.39;95282.00;5080872;28;20474;-59
2023/10/24 06:20:23;;;;;;;32.37;9.23;;;18.40;94.20;;;19.51;54.90;95274.84;5082740;28;20457;-60
2023/10/24 06:22:51;;;;;;;35.87;8.90;;;18.90;93.30;;;19.90;53.84;95275.53;5080334;28;20532;-61
2023/10/24 06:25:18;;;;;;;48.50;11.17;;;19.30;92.40;;;20.25;53.06;95273.88;5083151;28;20507;-60
2023/10/24 06:27:45;;;;;;;35.47;10.23;;;19.60;91.40;;;20.63;51.58;95270.09;5080345;28;20494;-60
2023/10/24 06:30:13;;;;;;;27.00;9.20;;;20.00;90.70;;;20.96;51.11;95270.41;5083196;28;21023;-61
2023/10/24 06:32:43;;;;;;;35.40;8.70;;;20.30;88.10;;;21.29;50.18;95269.81;5080041;28;20531;-60
2023/10/24 06:35:10;;;;;;;35.63;8.87;;;20.70;86.90;;;21.61;50.09;95275.53;5082757;28;20458;-60
2023/10/24 06:37:37;;;;;;;25.83;7.70;;;20.90;85.70;;;21.92;49.12;95277.75;5079793;28;20555;-60
2023/10/24 06:40:09;;;;;;;28.57;7.73;;;21.30;84.30;;;22.24;48.57;95277.22;5083245;28;21004;-61
2023/10/24 06:42:36;;;;;;;36.63;8.03;;;21.60;83.30;;;22.56;48.34;95273.81;5079904;28;20474;-62
2023/10/24 06:45:04;;;;;;;33.40;7.00;;;21.90;81.80;;;22.87;47.73;95272.38;5080302;28;20562;-61
2023/10/24 06:47:31;;;;;;;28.70;7.20;;;22.20;80.80;;;23.13;47.40;95278.81;5085232;28;20542;-62
2023/10/24 06:50:00;;;;;;;25.10;6.07;;;22.50;78.50;;;23.45;46.49;95278.94;5080203;28;20551;-61
2023/10/24 06:52:27;;;;;;;17.67;6.67;;;22.80;78.00;;;23.77;46.17;95282.56;5083444;28;20885;-60
2023/10/24 06:54:54;;;;;;;20.30;6.83;;;23.10;76.80;;;24.10;45.90;95267.38;5079869;28;20443;-61
2023/10/24 06:57:22;;;;;;;15.57;6.23;;;23.50;75.80;;;24.44;44.73;95268.81;5083551;28;20523;-62
2023/10/24 06:59:49;;;;;;;17.73;6.60;;;23.80;72.90;;;24.80;44.81;95271.91;5079952;28;20490;-61
2023/10/24 07:02:17;;;;;;;26.23;8.13;;;24.20;72.20;;;25.22;43.87;95275.69;5079925;28;20891;-62
2023/10/24 07:04:45;;;;;;;27.83;7.20;;;24.60;70.90;;;25.65;43.09;95268.66;5079198;28;20958;-61
2023/10/24 07:07:13;;;;;;;31.77;8.60;;;25.10;69.70;;;26.15;42.29;95261.44;5082823;28;20643;-60
2023/10/24 07:09:40;;;;;;;31.70;7.47;;;25.60;67.90;;;26.64;41.79;95264.91;5082819;28;20508;-62
2023/10/24 07:12:08;;;;;;;24.47;6.90;;;26.10;66.10;;;27.08;40.93;95260.09;5078855;28;20478;-61
2023/10/24 07:14:36;;;;;;;32.67;8.27;;;26.70;64.90;;;27.48;40.12;95259.41;5082222;28;20644;-61
2023/10/24 07:17:03;;;;;;;32.70;8.60;;;27.10;63.10;;;27.81;39.18;95254.38;5079359;28;20536;-61
2023/10/24 07:19:30;;;;;;;40.43;8.50;;;27.50;61.20;;;28.02;38.83;95256.47;5081917;28;20441;-60
2023/10/24 07:21:58;;;;;;;33.37;8.67;;;27.80;59.90;;;28.23;38.38;95246.06;5079085;28;20989;-62
2023/10/24 07:24:26;;;;;;;27.50;7.77;;;28.10;59.00;;;28.46;38.27;95242.44;5081563;28;20549;-60
2023/10/24 07:26:54;;;;;;;26.43;7.30;;;28.30;58.10;;;28.69;37.07;95240.69;5078792;28;20469;-60
2023/10/24 07:29:23;;;;;;;36.10;9.57;;;28.60;57.30;;;28.93;37.24;95236.75;5082762;28;20489;-61
2023/10/24 07:31:50;;;;;;;22.93;6.60;;;28.90;56.50;;;29.11;36.28;95237.56;5082800;28;20549;-60
2023/10/24 07:34:17;;;;;;;30.03;8.20;;;29.10;55.80;;;29.27;35.88;95242.19;5080020;28;20531;-61
2023/10/24 07:36:44;;;;;;;20.40;7.63;;;29.30;55.30;;;29.41;35.72;95239.13;5081768;28;20478;-61
2023/10/24 07:39:14;;;;;;;20.73;6.30;;;29.40;54.50;;;29.53;35.67;95239.84;5079392;28;20514;-62
2023/10/24 07:41:42;;;;;;;32.17;8.00;;;29.50;54.30;;;29.56;35.31;95239.34;5081321;28;20474;-59
2023/10/24 07:44:11;;;;;;;17.30;6.67;;;29.40;53.50;;;29.53;35.38;95236.28;5078979;28;20445;-62
2023/10/24 07:46:39;;;;;;;41.10;7.80;;;29.30;53.50;;;29.49;35.30;95233.28;5081016;28;20473;-62
2023/10/24 07:49:06;;;;;;;25.10;6.80;;;29.20;53.30;;;29.47;35.27;95230.00;5079160;28;20492;-61
2023/10/24 07:51:33;;;;;;;27.93;7.30;;;29.20;53.40;;;29.37;34.74;95235.28;5080789;28;20489;-61
2023/10/24 07:54:00;;;;;;;26.13;7.53;;;29.10;53.10;;;29.17;35.13;95219.50;5079401;28;20457;-60
2023/10/24 07:56:28;;;;;;;23.03;6.60;;;28.80;53.00;;;29.01;35.05;95223.88;5080353;28;20493;-62
2023/10/24 07:58:56;;;;;;;24.97;5.87;;;28.60;53.30;;;28.88;35.71;95220.44;5079304;28;20503;-62
2023/10/24 08:01:24;;;;;;;18.63;7.27;;;28.50;53.40;;;28.82;35.82;95220.63;5080388;28;20814;-60
2023/10/24 08:03:51;;;;;;;40.70;8.57;;;28.40;53.50;;;28.83;35.61;95225.78;5079597;28;21145;-60
2023/10/24 08:06:18;;;;;;;29.93;6.93;;;28.40;53.80;;;28.81;34.93;95217.06;5080217;28;20470;-62
2023/10/24 08:08:45;;;;;;;24.67;7.57;;;28.40;53.30;;;28.81;35.11;95219.78;5079451;28;20504;-61
2023/10/24 08:11:13;;;;;;;22.20;6.90;;;28.40;53.40;;;28.79;35.75;95222.72;5079426;28;20462;-60
2023/10/24 08:13:40;;;;;;;24.43;7.00;;;28.30;53.10;;;28.82;34.92;95218.72;5079857;28;20540;-61
2023/10/24 08:16:09;;;;;;;16.80;5.90;;;28.30;53.30;;;28.90;35.00;95225.59;5079315;28;20534;-61
2023/10/24 08:18:38;;;;;;;24.07;6.00;;;28.30;53.30;;;29.01;35.57;95210.34;5079650;28;20450;-60
2023/10/24 08:21:07;;;;;;;28.73;6.70;;;28.40;53.20;;;29.12;35.17;95209.41;5079747;28;21008;-59
2023/10/24 08:23:34;;;;;;;33.10;7.43;;;28.50;52.90;;;29.16;35.23;95205.16;5080228;28;20457;-60
2023/10/24 08:26:03;;;;;;;19.73;6.50;;;28.60;52.70;;;29.17;34.36;95209.47;5079240;28;20458;-58
2023/10/24 08:28:30;;;;;;;29.53;6.60;;;28.60;52.60;;;29.26;34.84;95201.78;5079399;28;20492;-60
2023/10/24 08:30:58;;;;;;;29.07;7.10;;;28.70;52.50;;;29.30;34.20;95201.03;5079091;28;20516;-60
2023/10/24 08:33:28;;;;;;;25.03;7.30;;;28.70;52.20;;;29.33;34.04;95195.13;5080313;28;20913;-61
2023/10/24 08:35:55;;;;;;;22.40;7.53;;;28.80;51.90;;;29.33;34.27;95187.00;5079600;28;20446;-63
2023/10/24 08:38:23;;;;;;;26.27;7.73;;;28.80;52.10;;;29.30;33.71;95192.91;5079295;28;20450;-62
2023/10/24 08:40:50;;;;;;;27.40;6.83;;;28.70;51.30;;;29.19;33.99;95180.28;5078769;28;20966;-60
2023/10/24 08:43:18;;;;;;;25.27;8.20;;;28.70;51.40;;;29.15;34.76;95179.13;5079530;28;20499;-60
2023/10/24 08:45:45;;;;;;;28.70;8.20;;;28.60;52.40;;;29.17;34.33;95174.25;5078994;28;20492;-61
2023/10/24 08:48:13;;;;;;;28.03;8.00;;;28.60;51.70;;;29.11;34.08;95169.84;5079976;28;20484;-60
2023/10/24 08:50:42;;;;;;;30.37;7.70;;;28.60;51.70;;;29.06;34.39;95178.72;5078002;28;20443;-63
2023/10/24 08:53:11;;;;;;;25.87;8.37;;;28.50;51.30;;;28.85;33.87;95176.81;5079689;28;20840;-61
2023/10/24 08:55:38;;;;;;;26.13;7.70;;;28.40;51.40;;;28.67;34.93;95172.44;5078481;28;20516;-61
2023/10/24 08:58:05;;;;;;;29.20;6.80;;;28.10;51.50;;;28.51;34.60;95174.88;5079780;28;20449;-62
2023/10/24 09:00:40;;;;;;;43.27;8.20;;;28.00;51.30;;;28.32;35.10;95170.75;5078258;28;20454;-60
2023/10/24 09:03:09;;;;;;;27.60;6.40;;;27.80;51.70;;;28.17;34.49;95169.41;5078915;28;20441;-60
2023/10/24 09:05:36;;;;;;;30.23;7.67;;;27.70;51.80;;;27.98;34.28;95159.84;5079412;28;20442;-62
2023/10/24 09:08:05;;;;;;;14.80;6.53;;;27.50;51.60;;;27.72;35.24;95153.97;5079191;28;20973;-60
2023/10/24 09:10:33;;;;;;;20.93;6.70;;;27.30;52.40;;;27.59;35.75;95151.53;5081528;28;20449;-62
2023/10/24 09:13:00;;;;;;;25.50;6.87;;;27.10;52.90;;;27.54;35.90;95144.97;5079821;28;20473;-59
2023/10/24 09:15:28;;;;;;;24.70;5.70;;;27.10;53.30;;;27.56;36.16;95147.44;5079517;28;20950;-60
2023/10/24 09:17:55;;;;;;;24.43;6.67;;;27.00;53.60;;;27.56;36.48;95147.44;5079457;28;20478;-60
2023/10/24 09:20:23;;;;;;;28.57;8.03;;;27.00;53.70;;;27.54;36.31;95139.56;5079273;28;20825;-61
2023/10/24 09:22:50;;;;;;;20.40;7.00;;;27.00;53.70;;;27.52;36.65;95140.84;5078605;28;20471;-61
2023/10/24 09:25:22;;;;;;;20.53;6.70;;;27.00;53.80;;;27.53;36.42;95137.91;5079749;28;20472;-62
2023/10/24 09:27:49;;;;;;;26.07;7.20;;;27.00;54.10;;;27.65;36.50;95140.59;5078882;28;20475;-60
2023/10/24 09:30:20;;;;;;;19.53;5.63;;;27.10;54.50;;;27.84;36.59;95143.91;5079320;28;20485;-61
2023/10/24 09:32:47;;;;;;;24.13;6.13;;;27.20;54.20;;;28.07;35.88;95142.19;5078637;28;20545;-60
2023/10/24 09:35:15;;;;;;;31.33;7.10;;;27.40;54.10;;;28.32;35.94;95135.56;5078819;28;20441;-61
2023/10/24 09:37:46;;;;;;;31.77;6.20;;;27.70;53.80;;;28.58;35.38;95137.69;5078761;28;20473;-61
2023/10/24 09:40:13;;;;;;;23.70;5.57;;;27.90;53.40;;;28.80;35.48;95142.34;5078292;28;20568;-60
2023/10/24 09:42:42;;;;;;;32.37;6.53;;;28.10;53.00;;;28.98;34.52;95128.50;5079181;28;20555;-61
2023/10/24 09:45:10;;;;;;;32.20;7.63;;;28.30;52.50;;;29.18;34.82;95132.56;5078679;28;20477;-60
2023/10/24 09:47:37;;;;;;;23.93;5.40;;;28.50;52.20;;;29.33;33.84;95121.97;5078804;28;20474;-60
2023/10/24 09:50:06;;;;;;;28.30;7.30;;;28.70;51.80;;;29.50;33.91;95123.78;5078995;28;20484;-62
2023/10/24 09:52:33;;;;;;;26.07;7.70;;;28.80;51.50;;;29.64;33.94;95125.03;5082622;28;21063;-60
2023/10/24 09:55:00;;;;;;;15.40;6.00;;;29.00;51.40;;;29.77;33.84;95115.69;5082593;28;20508;-61
2023/10/24 09:57:27;;;;;;;34.20;6.80;;;29.10;51.20;;;29.79;33.18;95112.72;5082154;28;20474;-60
2023/10/24 09:59:57;;;;;;;22.80;5.70;;;29.20;50.50;;;29.79;32.96;95115.44;5083222;28;20453;-61
2023/10/24 10:02:25;;;;;;;21.77;6.87;;;29.20;50.30;;;29.81;33.80;95110.63;5083682;28;20466;-60
2023/10/24 10:04:52;;;;;;;21.83;6.23;;;29.20;50.30;;;29.82;32.81;95104.09;5082702;28;20449;-62
2023/10/24 10:07:20;;;;;;;23.83;6.70;;;29.30;50.40;;;29.85;33.37;95100.88;5081468;28;20521;-61
2023/10/24 10:09:48;;;;;;;25.17;6.27;;;29.30;50.30;;;29.90;33.15;95100.13;5082010;28;20495;-61
2023/10/24 10:12:17;;;;;;;25.87;6.43;;;29.30;50.40;;;29.94;33.12;95093.91;5081747;28;20848;-60
2023/10/24 10:14:56;;;;;;;23.40;4.00;;;29.40;50.20;;;29.96;32.54;95090.94;5082610;28;20461;-60